createdAt,value
2022-12-16T00:00:16.004Z,155.80
2022-12-16T00:03:03.682Z,141.60
2022-12-16T00:05:31.397Z,135.60
2022-12-16T00:07:59.004Z,133.00
2022-12-16T00:10:26.813Z,127.80
2022-12-16T00:12:54.379Z,113.40
2022-12-16T00:15:22.913Z,127.90
2022-12-16T00:17:50.597Z,115.00
2022-12-16T00:20:19.485Z,104.40
2022-12-16T00:22:47.052Z,114.10
2022-12-16T00:25:14.723Z,114.70
2022-12-16T00:27:42.288Z,107.90
2022-12-16T00:30:10.250Z,106.00
2022-12-16T00:32:37.940Z,108.10
2022-12-16T00:35:05.843Z,122.60
2022-12-16T00:37:33.411Z,106.20
2022-12-16T00:40:01.104Z,110.80
2022-12-16T00:42:28.781Z,110.90
2022-12-16T00:44:56.361Z,117.20
2022-12-16T00:47:24.048Z,107.90
2022-12-16T00:49:51.738Z,111.10
2022-12-16T00:52:19.342Z,110.50
2022-12-16T00:54:47.470Z,106.20
2022-12-16T00:57:15.748Z,99.30
2022-12-16T00:59:43.507Z,101.30
2022-12-16T01:02:11.409Z,104.00
2022-12-16T01:04:40.519Z,96.10
2022-12-16T01:07:08.829Z,98.30
2022-12-16T01:09:36.713Z,102.70
2022-12-16T01:12:04.603Z,104.20
2022-12-16T01:14:32.556Z,98.40
2022-12-16T01:17:01.758Z,102.30
2022-12-16T01:19:29.955Z,98.90
2022-12-16T01:21:57.744Z,88.60
2022-12-16T01:24:25.339Z,94.50
2022-12-16T01:26:52.931Z,99.30
2022-12-16T01:29:20.600Z,96.50
2022-12-16T01:31:48.625Z,99.00
2022-12-16T01:34:17.143Z,97.00
2022-12-16T01:36:44.789Z,89.10
2022-12-16T01:39:13.123Z,80.10
2022-12-16T01:41:40.702Z,80.00
2022-12-16T01:44:14.640Z,75.70
2022-12-16T01:46:43.602Z,83.80
2022-12-16T01:49:16.389Z,85.10
2022-12-16T01:51:50.456Z,103.50
2022-12-16T01:54:22.317Z,94.00
2022-12-16T01:56:54.051Z,90.40
2022-12-16T01:59:24.705Z,85.10
2022-12-16T02:01:52.701Z,77.40
2022-12-16T02:04:20.778Z,86.20
2022-12-16T02:06:48.498Z,90.30
2022-12-16T02:09:16.414Z,85.40
2022-12-16T02:12:02.801Z,82.60
2022-12-16T02:14:45.652Z,90.90
2022-12-16T02:17:28.339Z,80.60
2022-12-16T02:19:56.362Z,82.00
2022-12-16T02:22:44.344Z,81.20
2022-12-16T02:25:30.718Z,80.50
2022-12-16T02:28:04.131Z,82.50
2022-12-16T02:30:41.803Z,87.70
2022-12-16T02:33:14.940Z,81.40
2022-12-16T02:35:42.669Z,78.40
2022-12-16T02:38:20.159Z,75.50
2022-12-16T02:41:00.331Z,78.20
2022-12-16T02:43:40.340Z,83.60
2022-12-16T02:46:08.835Z,83.60
2022-12-16T02:48:36.945Z,81.70
2022-12-16T02:51:05.248Z,77.60
2022-12-16T02:53:35.074Z,88.90
2022-12-16T02:56:07.272Z,83.80
2022-12-16T02:58:50.503Z,76.60
2022-12-16T03:01:37.316Z,86.40
2022-12-16T03:04:11.041Z,83.20
2022-12-16T03:06:40.380Z,89.60
2022-12-16T03:09:09.361Z,79.50
2022-12-16T03:11:38.013Z,80.10
2022-12-16T03:14:07.206Z,83.40
2022-12-16T03:16:35.066Z,92.30
2022-12-16T03:19:04.153Z,80.50
2022-12-16T03:21:34.990Z,90.30
2022-12-16T03:24:03.715Z,90.20
2022-12-16T03:26:37.664Z,89.50
2022-12-16T03:29:10.690Z,94.60
2022-12-16T03:31:41.737Z,85.00
2022-12-16T03:34:12.135Z,87.10
2022-12-16T03:36:41.472Z,91.40
2022-12-16T03:39:10.123Z,86.80
2022-12-16T03:41:38.978Z,84.00
2022-12-16T03:44:07.753Z,92.70
2022-12-16T03:46:35.644Z,84.70
2022-12-16T03:49:03.421Z,92.80
2022-12-16T03:51:31.017Z,90.20
2022-12-16T03:53:58.673Z,92.00
2022-12-16T03:56:26.385Z,91.10
2022-12-16T03:58:53.922Z,95.30
2022-12-16T04:01:23.386Z,90.30
2022-12-16T04:03:51.465Z,98.40
2022-12-16T04:06:19.500Z,90.90
2022-12-16T04:08:47.793Z,98.00
2022-12-16T04:11:34.333Z,90.70
2022-12-16T04:14:20.516Z,83.00
2022-12-16T04:17:06.963Z,86.90
2022-12-16T04:19:55.178Z,83.70
2022-12-16T04:22:44.488Z,90.00
2022-12-16T04:25:14.640Z,74.20
2022-12-16T04:27:46.891Z,82.00
2022-12-16T04:30:19.149Z,80.40
2022-12-16T04:33:05.842Z,71.10
2022-12-16T04:35:52.558Z,78.10
2022-12-16T04:41:25.525Z,79.90
2022-12-16T04:46:58.979Z,69.60
2022-12-16T04:52:32.573Z,73.20
2022-12-16T04:55:19.099Z,79.50
2022-12-16T04:58:12.680Z,69.60
2022-12-16T05:00:59.271Z,75.40
2022-12-16T05:03:46.112Z,72.80
2022-12-16T05:06:32.486Z,59.80
2022-12-16T05:09:19.198Z,67.90
2022-12-16T05:14:52.499Z,66.60
2022-12-16T05:17:38.795Z,67.60
2022-12-16T05:20:25.605Z,66.40
2022-12-16T05:28:45.155Z,74.40
2022-12-16T05:31:31.773Z,71.30
2022-12-16T05:34:18.427Z,65.30
2022-12-16T05:37:05.116Z,69.10
2022-12-16T05:39:51.738Z,72.50
2022-12-16T05:42:42.767Z,62.50
2022-12-16T05:45:29.245Z,72.30
2022-12-16T05:48:15.793Z,67.40
2022-12-16T05:51:02.092Z,67.30
2022-12-16T05:53:48.662Z,72.40
2022-12-16T05:56:35.183Z,71.60
2022-12-16T05:59:21.823Z,65.40
2022-12-16T06:02:08.534Z,68.20
2022-12-16T06:07:41.561Z,62.80
2022-12-16T06:10:44.728Z,62.90
2022-12-16T06:13:31.565Z,69.60
2022-12-16T06:16:18.247Z,59.60
2022-12-16T06:19:04.680Z,62.80
2022-12-16T06:22:11.255Z,75.90
2022-12-16T06:24:57.659Z,65.30
2022-12-16T06:27:44.468Z,64.40
2022-12-16T06:30:31.302Z,67.50
2022-12-16T06:33:17.796Z,74.20
2022-12-16T06:36:11.858Z,73.70
2022-12-16T06:38:58.093Z,56.20
2022-12-16T06:41:45.165Z,72.70
2022-12-16T06:44:31.651Z,78.70
2022-12-16T06:47:18.170Z,79.30
2022-12-16T06:50:05.092Z,74.50
2022-12-16T06:52:51.790Z,69.10
2022-12-16T06:55:38.077Z,72.10
2022-12-16T06:58:24.428Z,72.30
2022-12-16T07:01:11.209Z,78.00
2022-12-16T07:12:17.343Z,74.40
2022-12-16T07:15:04.008Z,70.60
2022-12-16T07:17:50.392Z,76.80
2022-12-16T07:20:37.017Z,62.80
2022-12-16T07:23:23.419Z,72.80
2022-12-16T07:26:09.919Z,75.00
2022-12-16T07:28:56.369Z,69.50
2022-12-16T07:31:42.914Z,70.00
2022-12-16T07:34:29.426Z,79.50
2022-12-16T07:37:16.196Z,74.60
2022-12-16T07:45:40.310Z,58.90
2022-12-16T07:48:29.893Z,62.10
2022-12-16T07:51:16.486Z,57.90
2022-12-16T07:54:03.103Z,76.10
2022-12-16T07:56:49.639Z,76.30
2022-12-16T07:59:36.363Z,49.70
2022-12-16T08:02:23.135Z,66.30
2022-12-16T08:05:09.957Z,77.90
2022-12-16T08:07:58.717Z,84.90
2022-12-16T08:10:45.530Z,69.20
2022-12-16T08:13:32.029Z,65.80
2022-12-16T08:16:19.113Z,69.60
2022-12-16T08:19:10.742Z,78.70
2022-12-16T08:21:57.894Z,74.80
2022-12-16T08:24:49.681Z,74.90
2022-12-16T08:27:40.541Z,79.90
2022-12-16T08:30:27.646Z,76.10
2022-12-16T08:33:19.208Z,75.80
2022-12-16T08:36:07.036Z,63.60
2022-12-16T08:38:55.031Z,79.70
2022-12-16T08:41:42.348Z,84.30
2022-12-16T08:44:28.850Z,84.00
2022-12-16T08:47:15.498Z,83.60
2022-12-16T08:50:02.531Z,81.80
2022-12-16T08:52:49.763Z,75.30
2022-12-16T08:55:36.656Z,85.70
2022-12-16T08:58:23.421Z,84.70
2022-12-16T09:01:09.870Z,74.40
2022-12-16T09:03:56.369Z,80.80
2022-12-16T09:06:42.859Z,75.60
2022-12-16T09:09:29.124Z,74.50
2022-12-16T09:12:19.842Z,79.90
2022-12-16T09:15:06.319Z,85.00
2022-12-16T09:17:52.608Z,75.40
2022-12-16T09:20:39.787Z,72.40
2022-12-16T09:26:12.891Z,76.30
2022-12-16T09:31:45.837Z,75.40
2022-12-16T09:37:38.199Z,67.40
2022-12-16T09:40:25.515Z,69.70
2022-12-16T09:43:24.123Z,61.40
2022-12-16T09:46:17.456Z,72.00
2022-12-16T09:49:21.895Z,73.10
2022-12-16T09:52:12.513Z,72.60
2022-12-16T09:55:04.840Z,68.10
2022-12-16T09:57:53.477Z,77.20
2022-12-16T10:00:43.980Z,71.10
2022-12-16T10:03:41.634Z,76.20
2022-12-16T10:06:36.049Z,54.10
2022-12-16T10:09:42.907Z,72.60
2022-12-16T10:12:49.412Z,66.70
2022-12-16T10:21:10.621Z,67.40
2022-12-16T10:23:57.206Z,76.10
2022-12-16T10:26:49.872Z,70.10
2022-12-16T10:29:40.162Z,67.70
2022-12-16T10:32:33.751Z,69.90
2022-12-16T10:35:21.657Z,76.00
2022-12-16T10:38:08.391Z,75.60
2022-12-16T10:40:55.389Z,77.00
2022-12-16T10:43:53.030Z,87.00
2022-12-16T10:46:44.162Z,87.00
2022-12-16T10:49:33.196Z,76.30
2022-12-16T10:52:20.241Z,83.10
2022-12-16T10:58:04.474Z,67.30
2022-12-16T11:01:02.321Z,74.10
2022-12-16T11:03:50.001Z,74.30
2022-12-16T11:06:46.564Z,78.30
2022-12-16T11:09:53.208Z,70.00
2022-12-16T11:12:42.181Z,75.70
2022-12-16T11:15:41.648Z,80.10
2022-12-16T11:18:39.229Z,73.00
2022-12-16T11:21:34.165Z,68.40
2022-12-16T11:24:23.460Z,75.70
2022-12-16T11:27:13.396Z,63.00
2022-12-16T11:30:16.899Z,77.10
2022-12-16T11:33:14.566Z,72.90
2022-12-16T11:36:03.282Z,74.60
2022-12-16T11:38:59.034Z,69.70
2022-12-16T11:41:54.228Z,68.60
2022-12-16T11:44:46.886Z,36.80
2022-12-16T11:47:39.577Z,59.80
2022-12-16T11:50:30.645Z,62.10
2022-12-16T11:53:35.367Z,76.00
2022-12-16T11:56:23.292Z,60.70
2022-12-16T11:59:12.601Z,71.50
2022-12-16T12:02:04.845Z,78.10
2022-12-16T12:04:51.629Z,72.80
2022-12-16T12:08:04.645Z,74.90
2022-12-16T12:11:13.777Z,73.90
2022-12-16T12:14:03.250Z,78.90
2022-12-16T12:16:57.905Z,74.40
2022-12-16T12:20:01.389Z,78.30
2022-12-16T12:22:51.349Z,72.50
2022-12-16T12:25:59.746Z,72.50
2022-12-16T12:29:04.878Z,74.10
2022-12-16T12:32:11.459Z,75.90
2022-12-16T12:35:04.219Z,83.60
2022-12-16T12:38:15.381Z,79.20
2022-12-16T12:41:01.873Z,70.90
2022-12-16T12:44:01.208Z,77.20
2022-12-16T12:46:55.818Z,72.90
2022-12-16T12:49:45.339Z,69.30
2022-12-16T12:52:58.272Z,71.40
2022-12-16T12:55:47.894Z,73.80
2022-12-16T12:58:34.963Z,71.40
2022-12-16T13:01:22.381Z,73.70
2022-12-16T13:04:14.352Z,90.70
2022-12-16T13:07:00.867Z,77.50
2022-12-16T13:09:55.288Z,75.60
2022-12-16T13:12:45.802Z,78.20
2022-12-16T13:15:51.662Z,82.00
2022-12-16T13:18:41.632Z,69.10
2022-12-16T13:21:47.710Z,79.90
2022-12-16T13:24:48.442Z,72.90
2022-12-16T13:27:35.972Z,69.70
2022-12-16T13:30:37.983Z,79.90
2022-12-16T13:33:26.838Z,74.00
2022-12-16T13:36:15.955Z,80.60
2022-12-16T13:39:09.835Z,83.70
2022-12-16T13:41:56.647Z,68.20
2022-12-16T13:45:02.509Z,71.90
2022-12-16T13:48:01.982Z,73.10
2022-12-16T13:51:06.596Z,68.80
2022-12-16T13:53:58.153Z,90.30
2022-12-16T13:56:57.258Z,99.40
2022-12-16T13:59:44.927Z,76.00
2022-12-16T14:02:52.201Z,92.50
2022-12-16T14:05:48.826Z,79.40
2022-12-16T14:08:36.551Z,75.90
2022-12-16T14:11:25.115Z,73.20
2022-12-16T14:14:17.249Z,80.20
2022-12-16T14:17:33.323Z,75.50
2022-12-16T14:23:55.214Z,69.10
2022-12-16T14:26:36.166Z,75.80
2022-12-16T14:29:23.259Z,75.10
2022-12-16T14:32:10.162Z,73.20
2022-12-16T14:34:57.286Z,77.20
2022-12-16T14:37:55.665Z,79.20
2022-12-16T14:40:50.392Z,75.40
2022-12-16T14:43:41.272Z,70.70
2022-12-16T14:46:47.236Z,67.70
2022-12-16T14:49:49.184Z,78.50
2022-12-16T14:52:37.724Z,76.30
2022-12-16T14:55:36.639Z,76.30
2022-12-16T14:58:31.058Z,79.90
2022-12-16T15:01:19.498Z,82.10
2022-12-16T15:04:07.640Z,81.20
2022-12-16T15:07:02.060Z,87.40
2022-12-16T15:09:51.742Z,72.80
2022-12-16T15:12:40.953Z,81.10
2022-12-16T15:15:33.901Z,85.90
2022-12-16T15:18:22.037Z,74.10
2022-12-16T15:21:13.143Z,76.70
2022-12-16T15:24:00.667Z,81.90
2022-12-16T15:26:49.840Z,81.70
2022-12-16T15:29:56.301Z,80.70
2022-12-16T15:32:46.435Z,75.90
2022-12-16T15:35:46.206Z,76.40
2022-12-16T15:38:53.427Z,86.60
2022-12-16T15:41:47.671Z,76.90
2022-12-16T15:44:38.434Z,85.80
2022-12-16T15:47:39.011Z,74.50
2022-12-16T15:50:26.355Z,84.40
2022-12-16T15:53:13.881Z,81.80
2022-12-16T15:56:05.195Z,70.10
2022-12-16T15:58:53.849Z,92.40
2022-12-16T16:01:42.297Z,95.40
2022-12-16T16:04:41.019Z,83.60
2022-12-16T16:07:33.611Z,92.50
2022-12-16T16:10:52.568Z,84.90
2022-12-16T16:13:39.165Z,82.40
2022-12-16T16:16:28.316Z,90.00
2022-12-16T16:19:15.460Z,81.80
2022-12-16T16:27:37.119Z,86.20
2022-12-16T16:30:24.131Z,83.10
2022-12-16T16:33:11.150Z,87.50
2022-12-16T16:35:58.872Z,88.30
2022-12-16T16:38:45.991Z,91.90
2022-12-16T16:41:34.134Z,93.20
2022-12-16T16:44:22.287Z,86.90
2022-12-16T16:47:10.207Z,102.10
2022-12-16T16:49:59.883Z,89.10
2022-12-16T16:52:47.124Z,90.10
2022-12-16T16:55:38.006Z,117.00
2022-12-16T16:58:26.923Z,107.50
2022-12-16T17:01:14.363Z,93.10
2022-12-16T17:04:02.357Z,90.80
2022-12-16T17:06:49.034Z,90.80
2022-12-16T17:09:35.534Z,88.90
2022-12-16T17:12:28.691Z,89.00
2022-12-16T17:15:15.712Z,97.80
2022-12-16T17:18:02.634Z,157.80
2022-12-16T17:20:49.433Z,84.70
2022-12-16T17:23:36.566Z,121.60
2022-12-16T17:26:23.561Z,126.10
2022-12-16T17:31:57.127Z,94.10
2022-12-16T17:34:44.297Z,94.40
2022-12-16T17:37:30.897Z,91.30
2022-12-16T17:40:24.856Z,91.50
2022-12-16T17:43:11.383Z,90.30
2022-12-16T17:45:58.207Z,91.20
2022-12-16T17:51:33.359Z,92.50
2022-12-16T17:54:26.142Z,95.20
2022-12-16T17:57:15.677Z,91.90
2022-12-16T18:00:02.076Z,100.20
2022-12-16T18:02:49.171Z,98.10
2022-12-16T18:05:42.439Z,85.90
2022-12-16T18:08:33.361Z,90.10
2022-12-16T18:11:21.194Z,92.70
2022-12-16T18:14:09.109Z,96.80
2022-12-16T18:16:56.543Z,83.10
2022-12-16T18:19:43.886Z,89.80
2022-12-16T18:22:31.496Z,83.50
2022-12-16T18:25:19.442Z,86.70
2022-12-16T18:28:07.877Z,94.30
2022-12-16T18:33:43.246Z,97.90
2022-12-16T18:36:30.626Z,89.00
2022-12-16T18:39:17.892Z,81.30
2022-12-16T18:42:06.125Z,94.70
2022-12-16T18:47:45.995Z,77.60
2022-12-16T18:53:24.828Z,81.10
2022-12-16T18:56:22.117Z,81.60
2022-12-16T18:59:13.703Z,82.50
2022-12-16T19:02:00.366Z,87.70
2022-12-16T19:04:46.753Z,93.50
2022-12-16T19:07:34.111Z,87.90
2022-12-16T19:10:21.043Z,83.80
2022-12-16T19:13:08.059Z,92.40
2022-12-16T19:15:54.375Z,100.00
2022-12-16T19:18:57.959Z,86.10
2022-12-16T19:21:49.841Z,91.70
2022-12-16T19:24:38.652Z,85.40
2022-12-16T19:27:25.392Z,94.70
2022-12-16T19:30:12.574Z,92.20
2022-12-16T19:32:59.291Z,89.00
2022-12-16T19:35:46.189Z,92.60
2022-12-16T19:41:21.207Z,95.40
2022-12-16T19:44:09.296Z,90.60
2022-12-16T19:46:56.430Z,86.40
2022-12-16T19:49:44.645Z,95.40
2022-12-16T19:52:31.965Z,92.70
2022-12-16T19:55:19.090Z,87.30
2022-12-16T19:58:05.889Z,88.40
2022-12-16T20:00:53.583Z,90.80
2022-12-16T20:03:40.843Z,98.80
2022-12-16T20:06:28.067Z,91.20
2022-12-16T20:09:17.328Z,94.60
2022-12-16T20:12:04.032Z,90.40
2022-12-16T20:14:51.693Z,95.20
2022-12-16T20:17:52.025Z,92.50
2022-12-16T20:20:39.104Z,91.30
2022-12-16T20:23:25.926Z,96.40
2022-12-16T20:26:14.033Z,92.40
2022-12-16T20:29:02.567Z,85.60
2022-12-16T20:31:55.736Z,93.10
2022-12-16T20:34:43.195Z,105.80
2022-12-16T20:40:17.525Z,102.00
2022-12-16T20:43:04.065Z,95.30
2022-12-16T20:45:51.726Z,92.30
2022-12-16T20:48:38.682Z,99.40
2022-12-16T20:51:27.068Z,103.00
2022-12-16T20:54:14.025Z,97.20
2022-12-16T20:59:47.645Z,87.90
2022-12-16T21:02:34.875Z,97.30
2022-12-16T21:05:24.948Z,106.40
2022-12-16T21:08:12.272Z,95.60
2022-12-16T21:10:59.199Z,93.60
2022-12-16T21:16:34.195Z,98.00
2022-12-16T21:19:21.371Z,95.90
2022-12-16T21:22:09.082Z,101.00
2022-12-16T21:24:56.406Z,111.50
2022-12-16T21:27:45.187Z,102.20
2022-12-16T21:30:32.927Z,96.80
2022-12-16T21:33:21.676Z,94.40
2022-12-16T21:36:16.965Z,97.50
2022-12-16T21:39:04.835Z,105.40
2022-12-16T21:41:52.127Z,98.60
2022-12-16T21:44:39.330Z,106.10
2022-12-16T21:47:26.360Z,111.50
2022-12-16T21:53:01.352Z,91.90
2022-12-16T21:55:48.629Z,87.30
2022-12-16T21:58:35.691Z,99.00
2022-12-16T22:04:13.125Z,92.00
2022-12-16T22:07:01.331Z,98.00
2022-12-16T22:09:50.762Z,112.10
2022-12-16T22:12:56.282Z,97.30
2022-12-16T22:15:44.660Z,115.80
2022-12-16T22:18:33.324Z,105.60
2022-12-16T22:21:22.680Z,97.20
2022-12-16T22:24:11.850Z,103.50
2022-12-16T22:27:00.534Z,100.70
2022-12-16T22:29:48.763Z,111.50
2022-12-16T22:32:36.922Z,110.30
2022-12-16T22:35:25.752Z,113.50
2022-12-16T22:38:14.443Z,92.00
2022-12-16T22:41:03.652Z,107.10
2022-12-16T22:43:51.835Z,99.10
2022-12-16T22:46:40.118Z,102.60
2022-12-16T22:49:28.499Z,107.40
2022-12-16T22:52:16.931Z,108.10
2022-12-16T22:55:04.360Z,120.20
2022-12-16T22:57:53.496Z,105.60
2022-12-16T23:00:40.955Z,116.20
2022-12-16T23:03:34.837Z,115.50
2022-12-16T23:06:22.375Z,106.20
2022-12-16T23:09:09.868Z,115.60
2022-12-16T23:11:59.243Z,116.90
2022-12-16T23:14:47.001Z,111.30
2022-12-16T23:17:34.125Z,115.70
2022-12-16T23:20:23.224Z,110.00
2022-12-16T23:23:14.087Z,118.60
2022-12-16T23:26:02.199Z,120.80
2022-12-16T23:28:49.633Z,120.20
2022-12-16T23:31:38.282Z,113.50
2022-12-16T23:34:26.257Z,108.40
2022-12-16T23:37:15.443Z,130.10
2022-12-16T23:40:02.917Z,121.60
2022-12-16T23:42:51.357Z,116.90
2022-12-16T23:45:40.311Z,115.00
2022-12-16T23:48:28.662Z,119.90
2022-12-16T23:51:16.591Z,125.80
2022-12-16T23:54:04.022Z,118.30
2022-12-16T23:56:51.801Z,118.60
2022-12-16T23:59:39.476Z,117.70
